sensor_id;sensor_type;location;lat;lon;timestamp;P1;durP1;ratioP1;P2;durP2;ratioP2
16484;SDS011;8353;47.856;12.344;2023-08-20T00:00:29;3.15;;;2.85;;
16484;SDS011;8353;47.856;12.344;2023-08-20T00:03:02;3.38;;;3.05;;
16484;SDS011;8353;47.856;12.344;2023-08-20T00:05:35;3.22;;;2.55;;
16484;SDS011;8353;47.856;12.344;2023-08-20T00:08:07;5.15;;;3.03;;
16484;SDS011;8353;47.856;12.344;2023-08-20T00:10:38;4.63;;;2.88;;
16484;SDS011;8353;47.856;12.344;2023-08-20T00:13:08;4.53;;;3.00;;
16484;SDS011;8353;47.856;12.344;2023-08-20T00:15:39;4.97;;;3.10;;
16484;SDS011;8353;47.856;12.344;2023-08-20T00:18:10;5.40;;;3.47;;
16484;SDS011;8353;47.856;12.344;2023-08-20T00:20:41;3.72;;;2.55;;
16484;SDS011;8353;47.856;12.344;2023-08-20T00:23:15;5.75;;;2.97;;
16484;SDS011;8353;47.856;12.344;2023-08-20T00:25:47;4.53;;;3.67;;
16484;SDS011;8353;47.856;12.344;2023-08-20T00:28:18;3.88;;;3.05;;
16484;SDS011;8353;47.856;12.344;2023-08-20T00:30:50;3.63;;;3.15;;
16484;SDS011;8353;47.856;12.344;2023-08-20T00:33:21;3.50;;;2.70;;
16484;SDS011;8353;47.856;12.344;2023-08-20T00:35:51;3.72;;;2.90;;
16484;SDS011;8353;47.856;12.344;2023-08-20T00:38:23;4.53;;;3.33;;
16484;SDS011;8353;47.856;12.344;2023-08-20T00:40:53;3.00;;;2.70;;
16484;SDS011;8353;47.856;12.344;2023-08-20T00:43:24;4.38;;;3.30;;
16484;SDS011;8353;47.856;12.344;2023-08-20T00:45:55;4.55;;;3.00;;
16484;SDS011;8353;47.856;12.344;2023-08-20T00:48:25;3.50;;;2.83;;
16484;SDS011;8353;47.856;12.344;2023-08-20T00:50:56;4.15;;;3.20;;
16484;SDS011;8353;47.856;12.344;2023-08-20T00:53:28;3.35;;;2.70;;
16484;SDS011;8353;47.856;12.344;2023-08-20T00:55:59;4.07;;;2.97;;
16484;SDS011;8353;47.856;12.344;2023-08-20T00:58:30;3.70;;;2.63;;
16484;SDS011;8353;47.856;12.344;2023-08-20T01:01:00;4.07;;;2.90;;
16484;SDS011;8353;47.856;12.344;2023-08-20T01:03:31;3.75;;;2.60;;
16484;SDS011;8353;47.856;12.344;2023-08-20T01:06:01;3.75;;;3.30;;
16484;SDS011;8353;47.856;12.344;2023-08-20T01:08:43;4.03;;;3.08;;
16484;SDS011;8353;47.856;12.344;2023-08-20T01:11:24;3.10;;;2.80;;
16484;SDS011;8353;47.856;12.344;2023-08-20T01:13:59;5.47;;;2.75;;
16484;SDS011;8353;47.856;12.344;2023-08-20T01:16:30;3.42;;;2.60;;
16484;SDS011;8353;47.856;12.344;2023-08-20T01:19:00;2.60;;;2.40;;
16484;SDS011;8353;47.856;12.344;2023-08-20T01:21:35;4.25;;;3.15;;
16484;SDS011;8353;47.856;12.344;2023-08-20T01:24:17;3.72;;;3.15;;
16484;SDS011;8353;47.856;12.344;2023-08-20T01:27:00;3.10;;;2.80;;
16484;SDS011;8353;47.856;12.344;2023-08-20T01:29:41;6.18;;;3.10;;
16484;SDS011;8353;47.856;12.344;2023-08-20T01:32:12;4.47;;;3.28;;
16484;SDS011;8353;47.856;12.344;2023-08-20T01:34:43;3.25;;;2.95;;
16484;SDS011;8353;47.856;12.344;2023-08-20T01:37:14;3.78;;;3.25;;
16484;SDS011;8353;47.856;12.344;2023-08-20T01:39:45;3.15;;;2.85;;
16484;SDS011;8353;47.856;12.344;2023-08-20T01:42:15;6.65;;;3.78;;
16484;SDS011;8353;47.856;12.344;2023-08-20T01:45:03;4.95;;;2.70;;
16484;SDS011;8353;47.856;12.344;2023-08-20T01:47:34;4.68;;;2.97;;
16484;SDS011;8353;47.856;12.344;2023-08-20T01:50:05;3.08;;;2.40;;
16484;SDS011;8353;47.856;12.344;2023-08-20T01:52:36;3.95;;;3.08;;
16484;SDS011;8353;47.856;12.344;2023-08-20T01:55:07;4.00;;;2.90;;
16484;SDS011;8353;47.856;12.344;2023-08-20T01:57:38;4.82;;;2.88;;
16484;SDS011;8353;47.856;12.344;2023-08-20T02:00:10;4.05;;;2.90;;
16484;SDS011;8353;47.856;12.344;2023-08-20T02:02:42;4.53;;;3.60;;
16484;SDS011;8353;47.856;12.344;2023-08-20T02:05:12;4.43;;;2.97;;
16484;SDS011;8353;47.856;12.344;2023-08-20T02:07:43;3.53;;;3.20;;
16484;SDS011;8353;47.856;12.344;2023-08-20T02:10:14;4.53;;;3.45;;
16484;SDS011;8353;47.856;12.344;2023-08-20T02:12:44;3.25;;;2.88;;
16484;SDS011;8353;47.856;12.344;2023-08-20T02:15:16;4.82;;;3.80;;
16484;SDS011;8353;47.856;12.344;2023-08-20T02:17:47;9.65;;;4.18;;
16484;SDS011;8353;47.856;12.344;2023-08-20T02:20:17;4.30;;;3.83;;
16484;SDS011;8353;47.856;12.344;2023-08-20T02:22:48;3.10;;;2.88;;
16484;SDS011;8353;47.856;12.344;2023-08-20T02:25:18;4.93;;;3.50;;
16484;SDS011;8353;47.856;12.344;2023-08-20T02:27:48;4.22;;;3.20;;
16484;SDS011;8353;47.856;12.344;2023-08-20T02:30:21;3.35;;;2.70;;
16484;SDS011;8353;47.856;12.344;2023-08-20T02:32:51;5.38;;;3.45;;
16484;SDS011;8353;47.856;12.344;2023-08-20T02:35:22;4.50;;;2.70;;
16484;SDS011;8353;47.856;12.344;2023-08-20T02:37:53;3.47;;;3.15;;
16484;SDS011;8353;47.856;12.344;2023-08-20T02:40:23;4.53;;;3.40;;
16484;SDS011;8353;47.856;12.344;2023-08-20T02:42:53;3.17;;;2.67;;
16484;SDS011;8353;47.856;12.344;2023-08-20T02:45:25;4.10;;;2.90;;
16484;SDS011;8353;47.856;12.344;2023-08-20T02:47:57;4.13;;;3.20;;
16484;SDS011;8353;47.856;12.344;2023-08-20T02:50:27;4.38;;;3.47;;
16484;SDS011;8353;47.856;12.344;2023-08-20T02:52:58;3.17;;;2.72;;
16484;SDS011;8353;47.856;12.344;2023-08-20T02:55:28;3.50;;;3.20;;
16484;SDS011;8353;47.856;12.344;2023-08-20T02:57:59;3.17;;;2.63;;
16484;SDS011;8353;47.856;12.344;2023-08-20T03:00:32;6.60;;;2.80;;
16484;SDS011;8353;47.856;12.344;2023-08-20T03:03:02;4.72;;;3.55;;
16484;SDS011;8353;47.856;12.344;2023-08-20T03:05:36;3.30;;;2.95;;
16484;SDS011;8353;47.856;12.344;2023-08-20T03:08:06;4.65;;;3.47;;
16484;SDS011;8353;47.856;12.344;2023-08-20T03:10:36;4.60;;;3.20;;
16484;SDS011;8353;47.856;12.344;2023-08-20T03:13:07;4.15;;;3.30;;
16484;SDS011;8353;47.856;12.344;2023-08-20T03:15:39;4.07;;;2.95;;
16484;SDS011;8353;47.856;12.344;2023-08-20T03:18:10;3.75;;;3.28;;
16484;SDS011;8353;47.856;12.344;2023-08-20T03:20:40;3.90;;;2.58;;
16484;SDS011;8353;47.856;12.344;2023-08-20T03:23:11;3.35;;;3.05;;
16484;SDS011;8353;47.856;12.344;2023-08-20T03:25:41;3.10;;;2.90;;
16484;SDS011;8353;47.856;12.344;2023-08-20T03:28:11;5.18;;;3.15;;
16484;SDS011;8353;47.856;12.344;2023-08-20T03:30:43;3.72;;;3.00;;
16484;SDS011;8353;47.856;12.344;2023-08-20T03:33:13;4.70;;;3.00;;
16484;SDS011;8353;47.856;12.344;2023-08-20T03:35:45;5.70;;;3.00;;
16484;SDS011;8353;47.856;12.344;2023-08-20T03:38:16;4.40;;;3.03;;
16484;SDS011;8353;47.856;12.344;2023-08-20T03:40:46;3.75;;;3.10;;
16484;SDS011;8353;47.856;12.344;2023-08-20T03:43:17;2.97;;;2.78;;
16484;SDS011;8353;47.856;12.344;2023-08-20T03:45:50;6.60;;;3.47;;
16484;SDS011;8353;47.856;12.344;2023-08-20T03:48:21;5.63;;;2.90;;
16484;SDS011;8353;47.856;12.344;2023-08-20T03:50:51;6.53;;;3.53;;
16484;SDS011;8353;47.856;12.344;2023-08-20T03:53:22;3.58;;;2.72;;
16484;SDS011;8353;47.856;12.344;2023-08-20T03:55:52;3.63;;;2.97;;
16484;SDS011;8353;47.856;12.344;2023-08-20T03:58:23;3.78;;;3.03;;
16484;SDS011;8353;47.856;12.344;2023-08-20T04:00:54;3.50;;;2.55;;
16484;SDS011;8353;47.856;12.344;2023-08-20T04:03:25;3.05;;;2.75;;
16484;SDS011;8353;47.856;12.344;2023-08-20T04:05:56;6.22;;;3.63;;
16484;SDS011;8353;47.856;12.344;2023-08-20T04:08:27;3.90;;;2.85;;
16484;SDS011;8353;47.856;12.344;2023-08-20T04:10:57;3.88;;;3.05;;
16484;SDS011;8353;47.856;12.344;2023-08-20T04:13:27;2.95;;;2.67;;
16484;SDS011;8353;47.856;12.344;2023-08-20T04:15:59;2.90;;;2.70;;
16484;SDS011;8353;47.856;12.344;2023-08-20T04:18:30;3.78;;;3.10;;
16484;SDS011;8353;47.856;12.344;2023-08-20T04:21:00;6.03;;;3.67;;
16484;SDS011;8353;47.856;12.344;2023-08-20T04:23:31;6.57;;;3.97;;
16484;SDS011;8353;47.856;12.344;2023-08-20T04:26:01;3.63;;;3.00;;
16484;SDS011;8353;47.856;12.344;2023-08-20T04:28:31;2.92;;;2.70;;
16484;SDS011;8353;47.856;12.344;2023-08-20T04:31:03;4.25;;;3.67;;
16484;SDS011;8353;47.856;12.344;2023-08-20T04:33:33;4.90;;;2.80;;
16484;SDS011;8353;47.856;12.344;2023-08-20T04:36:04;3.40;;;2.83;;
16484;SDS011;8353;47.856;12.344;2023-08-20T04:38:35;5.00;;;3.50;;
16484;SDS011;8353;47.856;12.344;2023-08-20T04:41:05;9.23;;;3.42;;
16484;SDS011;8353;47.856;12.344;2023-08-20T04:43:36;4.90;;;3.22;;
16484;SDS011;8353;47.856;12.344;2023-08-20T04:46:08;2.72;;;2.50;;
16484;SDS011;8353;47.856;12.344;2023-08-20T04:48:38;2.72;;;2.53;;
16484;SDS011;8353;47.856;12.344;2023-08-20T04:51:09;5.10;;;3.75;;
16484;SDS011;8353;47.856;12.344;2023-08-20T04:53:39;2.90;;;2.60;;
16484;SDS011;8353;47.856;12.344;2023-08-20T04:56:10;4.25;;;3.00;;
16484;SDS011;8353;47.856;12.344;2023-08-20T04:58:40;3.75;;;3.45;;
16484;SDS011;8353;47.856;12.344;2023-08-20T05:01:12;5.63;;;3.03;;
16484;SDS011;8353;47.856;12.344;2023-08-20T05:03:42;3.25;;;2.58;;
16484;SDS011;8353;47.856;12.344;2023-08-20T05:06:13;4.50;;;2.92;;
16484;SDS011;8353;47.856;12.344;2023-08-20T05:08:44;3.22;;;2.72;;
16484;SDS011;8353;47.856;12.344;2023-08-20T05:11:14;4.35;;;3.97;;
16484;SDS011;8353;47.856;12.344;2023-08-20T05:13:45;4.78;;;3.78;;
16484;SDS011;8353;47.856;12.344;2023-08-20T05:16:18;5.60;;;3.92;;
16484;SDS011;8353;47.856;12.344;2023-08-20T05:18:49;2.67;;;2.47;;
16484;SDS011;8353;47.856;12.344;2023-08-20T05:21:19;5.30;;;4.20;;
16484;SDS011;8353;47.856;12.344;2023-08-20T05:23:50;4.63;;;2.78;;
16484;SDS011;8353;47.856;12.344;2023-08-20T05:26:21;5.28;;;3.70;;
16484;SDS011;8353;47.856;12.344;2023-08-20T05:28:52;4.82;;;3.42;;
16484;SDS011;8353;47.856;12.344;2023-08-20T05:31:24;3.97;;;2.95;;
16484;SDS011;8353;47.856;12.344;2023-08-20T05:33:54;5.57;;;3.60;;
16484;SDS011;8353;47.856;12.344;2023-08-20T05:36:25;5.82;;;3.72;;
16484;SDS011;8353;47.856;12.344;2023-08-20T05:38:55;6.18;;;3.80;;
16484;SDS011;8353;47.856;12.344;2023-08-20T05:41:26;3.78;;;2.95;;
16484;SDS011;8353;47.856;12.344;2023-08-20T05:43:57;3.97;;;3.33;;
16484;SDS011;8353;47.856;12.344;2023-08-20T05:46:29;4.72;;;3.25;;
16484;SDS011;8353;47.856;12.344;2023-08-20T05:48:59;3.55;;;2.85;;
16484;SDS011;8353;47.856;12.344;2023-08-20T05:51:30;8.65;;;5.90;;
16484;SDS011;8353;47.856;12.344;2023-08-20T05:54:00;7.10;;;5.00;;
16484;SDS011;8353;47.856;12.344;2023-08-20T05:56:31;8.35;;;4.75;;
16484;SDS011;8353;47.856;12.344;2023-08-20T05:59:03;7.43;;;4.25;;
16484;SDS011;8353;47.856;12.344;2023-08-20T06:01:34;6.05;;;3.90;;
16484;SDS011;8353;47.856;12.344;2023-08-20T06:04:05;4.07;;;3.47;;
16484;SDS011;8353;47.856;12.344;2023-08-20T06:06:35;9.00;;;4.50;;
16484;SDS011;8353;47.856;12.344;2023-08-20T06:09:06;6.82;;;4.28;;
16484;SDS011;8353;47.856;12.344;2023-08-20T06:11:36;4.93;;;3.70;;
16484;SDS011;8353;47.856;12.344;2023-08-20T06:14:07;5.43;;;4.20;;
16484;SDS011;8353;47.856;12.344;2023-08-20T06:16:39;4.80;;;3.42;;
16484;SDS011;8353;47.856;12.344;2023-08-20T06:19:09;8.65;;;4.63;;
16484;SDS011;8353;47.856;12.344;2023-08-20T06:21:40;5.65;;;4.60;;
16484;SDS011;8353;47.856;12.344;2023-08-20T06:24:12;8.02;;;5.20;;
16484;SDS011;8353;47.856;12.344;2023-08-20T06:26:43;6.22;;;4.07;;
16484;SDS011;8353;47.856;12.344;2023-08-20T06:29:14;6.05;;;4.40;;
16484;SDS011;8353;47.856;12.344;2023-08-20T06:31:46;4.85;;;4.20;;
16484;SDS011;8353;47.856;12.344;2023-08-20T06:34:16;5.47;;;4.50;;
16484;SDS011;8353;47.856;12.344;2023-08-20T06:36:47;5.88;;;4.45;;
16484;SDS011;8353;47.856;12.344;2023-08-20T06:39:17;4.88;;;4.00;;
16484;SDS011;8353;47.856;12.344;2023-08-20T06:41:49;5.30;;;3.88;;
16484;SDS011;8353;47.856;12.344;2023-08-20T06:44:19;5.38;;;3.95;;
16484;SDS011;8353;47.856;12.344;2023-08-20T06:46:51;5.05;;;3.45;;
16484;SDS011;8353;47.856;12.344;2023-08-20T06:49:21;4.55;;;3.50;;
16484;SDS011;8353;47.856;12.344;2023-08-20T06:51:52;7.25;;;4.43;;
16484;SDS011;8353;47.856;12.344;2023-08-20T06:54:23;5.55;;;4.10;;
16484;SDS011;8353;47.856;12.344;2023-08-20T06:56:53;5.15;;;3.40;;
16484;SDS011;8353;47.856;12.344;2023-08-20T06:59:23;6.72;;;4.00;;
16484;SDS011;8353;47.856;12.344;2023-08-20T07:01:55;3.50;;;3.00;;
16484;SDS011;8353;47.856;12.344;2023-08-20T07:04:25;4.57;;;3.30;;
16484;SDS011;8353;47.856;12.344;2023-08-20T07:06:55;4.07;;;3.53;;
16484;SDS011;8353;47.856;12.344;2023-08-20T07:09:29;5.40;;;3.50;;
16484;SDS011;8353;47.856;12.344;2023-08-20T07:11:59;5.95;;;3.90;;
16484;SDS011;8353;47.856;12.344;2023-08-20T07:14:31;5.50;;;4.20;;
16484;SDS011;8353;47.856;12.344;2023-08-20T07:17:03;3.65;;;3.28;;
16484;SDS011;8353;47.856;12.344;2023-08-20T07:19:36;6.13;;;4.63;;
16484;SDS011;8353;47.856;12.344;2023-08-20T07:22:06;3.40;;;3.10;;
16484;SDS011;8353;47.856;12.344;2023-08-20T07:24:38;5.07;;;4.10;;
16484;SDS011;8353;47.856;12.344;2023-08-20T07:27:08;7.70;;;4.60;;
16484;SDS011;8353;47.856;12.344;2023-08-20T07:29:41;5.63;;;4.05;;
16484;SDS011;8353;47.856;12.344;2023-08-20T07:32:13;5.82;;;3.78;;
16484;SDS011;8353;47.856;12.344;2023-08-20T07:34:43;6.43;;;3.35;;
16484;SDS011;8353;47.856;12.344;2023-08-20T07:37:14;6.32;;;4.22;;
16484;SDS011;8353;47.856;12.344;2023-08-20T07:39:44;7.82;;;4.78;;
16484;SDS011;8353;47.856;12.344;2023-08-20T07:42:15;6.68;;;4.72;;
16484;SDS011;8353;47.856;12.344;2023-08-20T07:44:46;5.55;;;4.03;;
16484;SDS011;8353;47.856;12.344;2023-08-20T07:47:20;4.88;;;4.30;;
16484;SDS011;8353;47.856;12.344;2023-08-20T07:49:50;6.25;;;4.95;;
16484;SDS011;8353;47.856;12.344;2023-08-20T07:52:21;7.40;;;4.30;;
16484;SDS011;8353;47.856;12.344;2023-08-20T07:54:52;5.88;;;4.80;;
16484;SDS011;8353;47.856;12.344;2023-08-20T07:57:22;4.32;;;3.92;;
16484;SDS011;8353;47.856;12.344;2023-08-20T07:59:53;8.27;;;6.57;;
16484;SDS011;8353;47.856;12.344;2023-08-20T08:02:25;6.22;;;3.88;;
16484;SDS011;8353;47.856;12.344;2023-08-20T08:04:55;3.63;;;3.33;;
16484;SDS011;8353;47.856;12.344;2023-08-20T08:07:26;5.05;;;3.58;;
16484;SDS011;8353;47.856;12.344;2023-08-20T08:09:57;3.83;;;3.42;;
16484;SDS011;8353;47.856;12.344;2023-08-20T08:12:27;4.72;;;3.80;;
16484;SDS011;8353;47.856;12.344;2023-08-20T08:14:57;6.53;;;3.80;;
16484;SDS011;8353;47.856;12.344;2023-08-20T08:17:30;4.95;;;3.83;;
16484;SDS011;8353;47.856;12.344;2023-08-20T08:20:01;4.97;;;3.38;;
16484;SDS011;8353;47.856;12.344;2023-08-20T08:22:31;6.57;;;3.53;;
16484;SDS011;8353;47.856;12.344;2023-08-20T08:25:02;5.95;;;3.78;;
16484;SDS011;8353;47.856;12.344;2023-08-20T08:27:35;5.47;;;3.42;;
16484;SDS011;8353;47.856;12.344;2023-08-20T08:30:06;4.85;;;3.63;;
16484;SDS011;8353;47.856;12.344;2023-08-20T08:32:39;5.65;;;3.97;;
16484;SDS011;8353;47.856;12.344;2023-08-20T08:35:09;5.50;;;3.83;;
16484;SDS011;8353;47.856;12.344;2023-08-20T08:37:40;3.97;;;3.38;;
16484;SDS011;8353;47.856;12.344;2023-08-20T08:40:11;4.15;;;3.40;;
16484;SDS011;8353;47.856;12.344;2023-08-20T08:42:41;4.75;;;3.45;;
16484;SDS011;8353;47.856;12.344;2023-08-20T08:45:12;10.93;;;5.47;;
16484;SDS011;8353;47.856;12.344;2023-08-20T08:47:45;5.20;;;3.58;;
16484;SDS011;8353;47.856;12.344;2023-08-20T08:50:16;5.18;;;3.50;;
16484;SDS011;8353;47.856;12.344;2023-08-20T08:52:47;5.45;;;3.92;;
16484;SDS011;8353;47.856;12.344;2023-08-20T08:55:20;5.75;;;4.03;;
16484;SDS011;8353;47.856;12.344;2023-08-20T08:57:52;6.68;;;3.83;;
16484;SDS011;8353;47.856;12.344;2023-08-20T09:00:22;9.25;;;5.03;;
16484;SDS011;8353;47.856;12.344;2023-08-20T09:02:54;5.60;;;4.40;;
16484;SDS011;8353;47.856;12.344;2023-08-20T09:05:24;6.70;;;3.90;;
16484;SDS011;8353;47.856;12.344;2023-08-20T09:07:57;6.53;;;4.35;;
16484;SDS011;8353;47.856;12.344;2023-08-20T09:10:27;5.57;;;3.92;;
16484;SDS011;8353;47.856;12.344;2023-08-20T09:12:58;5.03;;;3.50;;
16484;SDS011;8353;47.856;12.344;2023-08-20T09:15:31;5.20;;;3.67;;
16484;SDS011;8353;47.856;12.344;2023-08-20T09:18:08;6.32;;;4.25;;
16484;SDS011;8353;47.856;12.344;2023-08-20T09:20:39;6.00;;;3.60;;
16484;SDS011;8353;47.856;12.344;2023-08-20T09:23:10;6.20;;;3.60;;
16484;SDS011;8353;47.856;12.344;2023-08-20T09:25:42;5.60;;;3.90;;
16484;SDS011;8353;47.856;12.344;2023-08-20T09:28:13;4.20;;;3.55;;
16484;SDS011;8353;47.856;12.344;2023-08-20T09:30:57;5.32;;;3.75;;
16484;SDS011;8353;47.856;12.344;2023-08-20T09:33:31;7.50;;;3.65;;
16484;SDS011;8353;47.856;12.344;2023-08-20T09:36:02;4.82;;;4.25;;
16484;SDS011;8353;47.856;12.344;2023-08-20T09:38:36;5.05;;;3.70;;
16484;SDS011;8353;47.856;12.344;2023-08-20T09:41:07;4.82;;;3.65;;
16484;SDS011;8353;47.856;12.344;2023-08-20T09:43:38;5.35;;;4.13;;
16484;SDS011;8353;47.856;12.344;2023-08-20T09:46:11;5.82;;;4.07;;
16484;SDS011;8353;47.856;12.344;2023-08-20T09:48:48;7.45;;;3.90;;
16484;SDS011;8353;47.856;12.344;2023-08-20T09:51:23;5.45;;;3.40;;
16484;SDS011;8353;47.856;12.344;2023-08-20T09:53:55;6.72;;;4.38;;
16484;SDS011;8353;47.856;12.344;2023-08-20T09:56:30;6.95;;;4.63;;
16484;SDS011;8353;47.856;12.344;2023-08-20T09:59:00;6.10;;;4.63;;
16484;SDS011;8353;47.856;12.344;2023-08-20T10:01:31;5.80;;;4.32;;
16484;SDS011;8353;47.856;12.344;2023-08-20T10:04:04;5.45;;;3.53;;
16484;SDS011;8353;47.856;12.344;2023-08-20T10:06:36;6.15;;;3.60;;
16484;SDS011;8353;47.856;12.344;2023-08-20T10:09:07;4.82;;;3.58;;
16484;SDS011;8353;47.856;12.344;2023-08-20T10:11:39;5.03;;;4.07;;
16484;SDS011;8353;47.856;12.344;2023-08-20T10:14:10;9.05;;;8.00;;
16484;SDS011;8353;47.856;12.344;2023-08-20T10:16:41;6.78;;;3.53;;
16484;SDS011;8353;47.856;12.344;2023-08-20T10:19:13;5.75;;;3.90;;
16484;SDS011;8353;47.856;12.344;2023-08-20T10:21:45;6.53;;;4.70;;
16484;SDS011;8353;47.856;12.344;2023-08-20T10:24:16;5.53;;;3.78;;
16484;SDS011;8353;47.856;12.344;2023-08-20T10:26:48;4.05;;;3.50;;
16484;SDS011;8353;47.856;12.344;2023-08-20T10:29:37;3.40;;;3.10;;
16484;SDS011;8353;47.856;12.344;2023-08-20T10:32:10;3.63;;;2.90;;
16484;SDS011;8353;47.856;12.344;2023-08-20T10:34:47;4.18;;;3.20;;
16484;SDS011;8353;47.856;12.344;2023-08-20T10:37:27;5.35;;;3.38;;
16484;SDS011;8353;47.856;12.344;2023-08-20T10:39:58;4.45;;;3.40;;
16484;SDS011;8353;47.856;12.344;2023-08-20T10:42:28;5.38;;;3.53;;
16484;SDS011;8353;47.856;12.344;2023-08-20T10:45:01;6.80;;;3.60;;
16484;SDS011;8353;47.856;12.344;2023-08-20T10:47:42;6.55;;;4.03;;
16484;SDS011;8353;47.856;12.344;2023-08-20T10:50:16;4.05;;;3.03;;
16484;SDS011;8353;47.856;12.344;2023-08-20T10:52:48;6.55;;;3.75;;
16484;SDS011;8353;47.856;12.344;2023-08-20T10:55:21;4.57;;;3.40;;
16484;SDS011;8353;47.856;12.344;2023-08-20T10:57:56;3.58;;;3.28;;
16484;SDS011;8353;47.856;12.344;2023-08-20T11:00:28;4.22;;;3.05;;
16484;SDS011;8353;47.856;12.344;2023-08-20T11:02:58;3.67;;;2.90;;
16484;SDS011;8353;47.856;12.344;2023-08-20T11:05:30;5.65;;;3.50;;
16484;SDS011;8353;47.856;12.344;2023-08-20T11:08:01;5.70;;;3.53;;
16484;SDS011;8353;47.856;12.344;2023-08-20T11:10:36;3.83;;;3.45;;
16484;SDS011;8353;47.856;12.344;2023-08-20T11:13:07;4.78;;;3.80;;
16484;SDS011;8353;47.856;12.344;2023-08-20T11:15:38;5.03;;;4.10;;
16484;SDS011;8353;47.856;12.344;2023-08-20T11:18:10;4.47;;;3.60;;
16484;SDS011;8353;47.856;12.344;2023-08-20T11:20:43;3.92;;;3.50;;
16484;SDS011;8353;47.856;12.344;2023-08-20T11:23:14;4.82;;;4.18;;
16484;SDS011;8353;47.856;12.344;2023-08-20T11:25:45;4.80;;;4.13;;
16484;SDS011;8353;47.856;12.344;2023-08-20T11:28:15;3.40;;;3.10;;
16484;SDS011;8353;47.856;12.344;2023-08-20T11:30:45;6.05;;;5.55;;
16484;SDS011;8353;47.856;12.344;2023-08-20T11:33:17;7.63;;;6.93;;
16484;SDS011;8353;47.856;12.344;2023-08-20T11:35:49;6.07;;;5.47;;
16484;SDS011;8353;47.856;12.344;2023-08-20T11:38:22;7.97;;;7.20;;
16484;SDS011;8353;47.856;12.344;2023-08-20T11:40:53;14.25;;;11.63;;
16484;SDS011;8353;47.856;12.344;2023-08-20T11:43:24;7.65;;;6.95;;
16484;SDS011;8353;47.856;12.344;2023-08-20T11:45:54;5.18;;;4.10;;
16484;SDS011;8353;47.856;12.344;2023-08-20T11:48:25;6.35;;;3.80;;
16484;SDS011;8353;47.856;12.344;2023-08-20T11:50:57;5.40;;;4.90;;
16484;SDS011;8353;47.856;12.344;2023-08-20T11:53:28;8.32;;;4.18;;
16484;SDS011;8353;47.856;12.344;2023-08-20T11:55:58;4.47;;;4.05;;
16484;SDS011;8353;47.856;12.344;2023-08-20T11:58:30;4.60;;;4.18;;
16484;SDS011;8353;47.856;12.344;2023-08-20T12:01:00;4.97;;;4.53;;
16484;SDS011;8353;47.856;12.344;2023-08-20T12:03:30;5.20;;;4.70;;
16484;SDS011;8353;47.856;12.344;2023-08-20T12:08:56;6.45;;;4.50;;
16484;SDS011;8353;47.856;12.344;2023-08-20T12:11:27;5.18;;;4.65;;
16484;SDS011;8353;47.856;12.344;2023-08-20T12:13:58;5.53;;;5.13;;
16484;SDS011;8353;47.856;12.344;2023-08-20T12:16:29;8.35;;;7.55;;
16484;SDS011;8353;47.856;12.344;2023-08-20T12:18:59;13.35;;;12.05;;
16484;SDS011;8353;47.856;12.344;2023-08-20T12:21:30;7.70;;;6.97;;
16484;SDS011;8353;47.856;12.344;2023-08-20T12:24:02;5.75;;;5.25;;
16484;SDS011;8353;47.856;12.344;2023-08-20T12:26:33;6.32;;;5.82;;
16484;SDS011;8353;47.856;12.344;2023-08-20T12:29:05;5.40;;;5.00;;
16484;SDS011;8353;47.856;12.344;2023-08-20T12:31:37;4.53;;;4.13;;
16484;SDS011;8353;47.856;12.344;2023-08-20T12:34:08;4.95;;;4.57;;
16484;SDS011;8353;47.856;12.344;2023-08-20T12:36:39;4.45;;;4.07;;
16484;SDS011;8353;47.856;12.344;2023-08-20T12:39:10;4.53;;;4.13;;
16484;SDS011;8353;47.856;12.344;2023-08-20T12:41:41;5.88;;;4.25;;
16484;SDS011;8353;47.856;12.344;2023-08-20T12:44:12;3.70;;;3.40;;
16484;SDS011;8353;47.856;12.344;2023-08-20T12:46:42;4.05;;;3.75;;
16484;SDS011;8353;47.856;12.344;2023-08-20T12:49:12;4.43;;;4.03;;
16484;SDS011;8353;47.856;12.344;2023-08-20T12:51:43;5.05;;;4.55;;
16484;SDS011;8353;47.856;12.344;2023-08-20T12:54:15;4.55;;;4.18;;
16484;SDS011;8353;47.856;12.344;2023-08-20T12:56:46;4.65;;;4.25;;
16484;SDS011;8353;47.856;12.344;2023-08-20T12:59:16;4.50;;;4.10;;
16484;SDS011;8353;47.856;12.344;2023-08-20T13:01:48;3.80;;;3.50;;
16484;SDS011;8353;47.856;12.344;2023-08-20T13:04:18;4.68;;;4.32;;
16484;SDS011;8353;47.856;12.344;2023-08-20T13:06:49;4.68;;;4.10;;
16484;SDS011;8353;47.856;12.344;2023-08-20T13:09:23;4.60;;;4.07;;
16484;SDS011;8353;47.856;12.344;2023-08-20T13:11:57;4.38;;;4.03;;
16484;SDS011;8353;47.856;12.344;2023-08-20T13:14:32;4.55;;;4.13;;
16484;SDS011;8353;47.856;12.344;2023-08-20T13:17:03;5.03;;;4.63;;
16484;SDS011;8353;47.856;12.344;2023-08-20T13:19:34;3.72;;;3.42;;
16484;SDS011;8353;47.856;12.344;2023-08-20T13:22:04;4.68;;;4.20;;
16484;SDS011;8353;47.856;12.344;2023-08-20T13:24:36;4.43;;;4.13;;
16484;SDS011;8353;47.856;12.344;2023-08-20T13:27:06;3.85;;;3.55;;
16484;SDS011;8353;47.856;12.344;2023-08-20T13:29:37;3.75;;;3.45;;
16484;SDS011;8353;47.856;12.344;2023-08-20T13:32:08;4.70;;;4.30;;
16484;SDS011;8353;47.856;12.344;2023-08-20T13:34:39;6.57;;;4.43;;
16484;SDS011;8353;47.856;12.344;2023-08-20T13:37:10;5.50;;;4.43;;
16484;SDS011;8353;47.856;12.344;2023-08-20T13:39:41;4.35;;;4.05;;
16484;SDS011;8353;47.856;12.344;2023-08-20T13:42:11;4.60;;;4.20;;
16484;SDS011;8353;47.856;12.344;2023-08-20T13:44:41;4.38;;;4.00;;
16484;SDS011;8353;47.856;12.344;2023-08-20T13:47:12;4.30;;;3.90;;
16484;SDS011;8353;47.856;12.344;2023-08-20T13:49:42;4.75;;;4.30;;
16484;SDS011;8353;47.856;12.344;2023-08-20T13:52:13;3.75;;;3.45;;
16484;SDS011;8353;47.856;12.344;2023-08-20T13:54:45;3.95;;;3.67;;
16484;SDS011;8353;47.856;12.344;2023-08-20T13:57:15;4.07;;;3.70;;
16484;SDS011;8353;47.856;12.344;2023-08-20T13:59:45;5.18;;;3.85;;
16484;SDS011;8353;47.856;12.344;2023-08-20T14:02:16;3.90;;;3.55;;
16484;SDS011;8353;47.856;12.344;2023-08-20T14:04:46;4.90;;;3.65;;
16484;SDS011;8353;47.856;12.344;2023-08-20T14:07:17;4.72;;;4.32;;
16484;SDS011;8353;47.856;12.344;2023-08-20T14:09:49;5.70;;;5.30;;
16484;SDS011;8353;47.856;12.344;2023-08-20T14:12:19;4.72;;;4.43;;
16484;SDS011;8353;47.856;12.344;2023-08-20T14:14:50;6.05;;;5.65;;
16484;SDS011;8353;47.856;12.344;2023-08-20T14:17:21;4.97;;;4.57;;
16484;SDS011;8353;47.856;12.344;2023-08-20T14:19:52;4.75;;;4.35;;
16484;SDS011;8353;47.856;12.344;2023-08-20T14:22:21;4.53;;;4.13;;
16484;SDS011;8353;47.856;12.344;2023-08-20T14:24:53;4.25;;;3.95;;
16484;SDS011;8353;47.856;12.344;2023-08-20T14:27:23;4.13;;;3.80;;
16484;SDS011;8353;47.856;12.344;2023-08-20T14:29:53;4.55;;;4.10;;
16484;SDS011;8353;47.856;12.344;2023-08-20T14:32:23;4.00;;;3.70;;
16484;SDS011;8353;47.856;12.344;2023-08-20T14:34:54;3.72;;;3.42;;
16484;SDS011;8353;47.856;12.344;2023-08-20T14:37:24;3.95;;;3.65;;
16484;SDS011;8353;47.856;12.344;2023-08-20T14:39:55;4.57;;;4.15;;
16484;SDS011;8353;47.856;12.344;2023-08-20T14:42:26;3.90;;;3.60;;
16484;SDS011;8353;47.856;12.344;2023-08-20T14:44:57;4.63;;;4.13;;
16484;SDS011;8353;47.856;12.344;2023-08-20T14:47:27;4.35;;;3.70;;
16484;SDS011;8353;47.856;12.344;2023-08-20T14:49:58;4.05;;;3.75;;
16484;SDS011;8353;47.856;12.344;2023-08-20T14:52:28;5.57;;;4.28;;
16484;SDS011;8353;47.856;12.344;2023-08-20T14:55:00;4.93;;;4.53;;
16484;SDS011;8353;47.856;12.344;2023-08-20T14:57:33;4.93;;;4.10;;
16484;SDS011;8353;47.856;12.344;2023-08-20T15:00:03;4.35;;;3.92;;
16484;SDS011;8353;47.856;12.344;2023-08-20T15:02:38;4.00;;;3.70;;
16484;SDS011;8353;47.856;12.344;2023-08-20T15:05:08;7.00;;;4.20;;
16484;SDS011;8353;47.856;12.344;2023-08-20T15:07:40;6.03;;;5.43;;
16484;SDS011;8353;47.856;12.344;2023-08-20T15:10:14;4.40;;;4.00;;
16484;SDS011;8353;47.856;12.344;2023-08-20T15:12:44;4.35;;;3.95;;
16484;SDS011;8353;47.856;12.344;2023-08-20T15:15:16;7.18;;;6.47;;